createdAt,value
2016-08-13T00:00:11.986Z,1016.75
2016-08-13T00:01:12.008Z,1016.72
2016-08-13T00:02:12.039Z,1016.67
2016-08-13T00:03:12.062Z,1016.67
2016-08-13T00:04:12.091Z,1016.73
2016-08-13T00:05:12.115Z,1016.71
2016-08-13T00:06:12.142Z,1016.71
2016-08-13T00:07:12.170Z,1016.71
2016-08-13T00:08:12.195Z,1016.66
2016-08-13T00:09:12.221Z,1016.68
2016-08-13T00:11:12.273Z,1016.7
2016-08-13T00:12:12.297Z,1016.67
2016-08-13T00:13:12.324Z,1016.72
2016-08-13T00:14:12.350Z,1016.7
2016-08-13T00:15:12.381Z,1016.72
2016-08-13T00:16:12.405Z,1016.72
2016-08-13T00:17:12.432Z,1016.7
2016-08-13T00:18:12.456Z,1016.68
2016-08-13T00:19:12.482Z,1016.67
2016-08-13T00:20:12.507Z,1016.69
2016-08-13T00:21:12.536Z,1016.7
2016-08-13T00:22:12.563Z,1016.68
2016-08-13T00:23:12.589Z,1016.65
2016-08-13T00:24:12.613Z,1016.61
2016-08-13T00:25:12.644Z,1016.58
2016-08-13T00:27:12.693Z,1016.53
2016-08-13T00:28:12.719Z,1016.57
2016-08-13T00:29:12.744Z,1016.58
2016-08-13T00:30:12.772Z,1016.66
2016-08-13T00:31:12.796Z,1016.65
2016-08-13T00:32:12.825Z,1016.56
2016-08-13T00:33:12.851Z,1016.61
2016-08-13T00:34:12.877Z,1016.61
2016-08-13T00:35:12.903Z,1016.61
2016-08-13T00:36:12.929Z,1016.65
2016-08-13T00:37:12.961Z,1016.68
2016-08-13T00:38:12.980Z,1016.65
2016-08-13T00:39:13.008Z,1016.66
2016-08-13T00:40:13.033Z,1016.58
2016-08-13T00:41:13.058Z,1016.55
2016-08-13T00:43:13.116Z,1016.57
2016-08-13T00:44:13.138Z,1016.56
2016-08-13T00:45:13.168Z,1016.62
2016-08-13T00:46:13.190Z,1016.58
2016-08-13T00:47:13.224Z,1016.61
2016-08-13T00:48:13.245Z,1016.58
2016-08-13T00:49:13.269Z,1016.63
2016-08-13T00:50:13.298Z,1016.69
2016-08-13T00:51:13.329Z,1016.64
2016-08-13T00:52:13.348Z,1016.63
2016-08-13T00:53:13.375Z,1016.67
2016-08-13T00:54:13.400Z,1016.64
2016-08-13T00:55:13.427Z,1016.65
2016-08-13T00:56:13.454Z,1016.65
2016-08-13T00:58:13.510Z,1016.64
2016-08-13T00:59:13.533Z,1016.61
2016-08-13T01:00:13.561Z,1016.58
2016-08-13T01:01:13.585Z,1016.58
2016-08-13T01:02:13.614Z,1016.59
2016-08-13T01:03:13.638Z,1016.59
2016-08-13T01:04:13.664Z,1016.54
2016-08-13T01:05:13.694Z,1016.57
2016-08-13T01:06:13.716Z,1016.6
2016-08-13T01:07:13.743Z,1016.56
2016-08-13T01:08:13.769Z,1016.58
2016-08-13T01:09:13.796Z,1016.54
2016-08-13T01:10:13.821Z,1016.54
2016-08-13T01:11:13.851Z,1016.53
2016-08-13T01:12:13.874Z,1016.51
2016-08-13T01:13:13.900Z,1016.49
2016-08-13T01:14:13.928Z,1016.47
2016-08-13T01:15:13.954Z,1016.54
2016-08-13T01:16:13.979Z,1016.55
2016-08-13T01:17:14.007Z,1016.53
2016-08-13T01:18:14.034Z,1016.48
2016-08-13T01:19:14.060Z,1016.53
2016-08-13T01:20:14.088Z,1016.51
2016-08-13T01:21:14.111Z,1016.48
2016-08-13T01:22:14.138Z,1016.47
2016-08-13T01:23:14.171Z,1016.49
2016-08-13T01:24:14.192Z,1016.45
2016-08-13T01:25:14.216Z,1016.44
2016-08-13T01:26:14.242Z,1016.46
2016-08-13T01:27:14.269Z,1016.41
2016-08-13T01:28:14.298Z,1016.41
2016-08-13T01:30:14.347Z,1016.43
2016-08-13T01:31:14.377Z,1016.44
2016-08-13T01:32:14.399Z,1016.47
2016-08-13T01:33:14.428Z,1016.49
2016-08-13T01:34:14.453Z,1016.48
2016-08-13T01:35:14.479Z,1016.46
2016-08-13T01:36:14.508Z,1016.5
2016-08-13T01:37:14.531Z,1016.5
2016-08-13T01:38:14.560Z,1016.53
2016-08-13T01:39:14.588Z,1016.48
2016-08-13T01:40:14.609Z,1016.46
2016-08-13T01:41:14.639Z,1016.5
2016-08-13T01:42:14.662Z,1016.5
2016-08-13T01:43:14.696Z,1016.49
2016-08-13T01:44:14.716Z,1016.49
2016-08-13T01:46:14.773Z,1016.44
2016-08-13T01:47:14.796Z,1016.43
2016-08-13T01:48:14.823Z,1016.46
2016-08-13T01:49:14.846Z,1016.5
2016-08-13T01:50:14.872Z,1016.43
2016-08-13T01:51:14.901Z,1016.48
2016-08-13T01:52:14.927Z,1016.46
2016-08-13T01:53:14.951Z,1016.45
2016-08-13T01:54:14.977Z,1016.46
2016-08-13T01:55:15.003Z,1016.41
2016-08-13T01:56:15.031Z,1016.45
2016-08-13T01:57:15.060Z,1016.44
2016-08-13T01:58:15.083Z,1016.43
2016-08-13T01:59:15.108Z,1016.4
2016-08-13T02:00:15.136Z,1016.41
2016-08-13T02:02:15.187Z,1016.4
2016-08-13T02:03:15.212Z,1016.38
2016-08-13T02:04:15.240Z,1016.41
2016-08-13T02:05:15.264Z,1016.37
2016-08-13T02:06:15.293Z,1016.43
2016-08-13T02:07:15.318Z,1016.39
2016-08-13T02:08:15.344Z,1016.44
2016-08-13T02:09:15.372Z,1016.46
2016-08-13T02:10:15.399Z,1016.43
2016-08-13T02:11:15.422Z,1016.4
2016-08-13T02:12:15.450Z,1016.35
2016-08-13T02:13:15.474Z,1016.34
2016-08-13T02:14:15.501Z,1016.34
2016-08-13T02:15:15.529Z,1016.34
2016-08-13T02:16:15.555Z,1016.34
2016-08-13T02:18:15.606Z,1016.33
2016-08-13T02:19:15.635Z,1016.33
2016-08-13T02:20:15.658Z,1016.25
2016-08-13T02:21:15.684Z,1016.25
2016-08-13T02:22:15.712Z,1016.33
2016-08-13T02:23:15.737Z,1016.31
2016-08-13T02:24:15.763Z,1016.29
2016-08-13T02:25:15.789Z,1016.33
2016-08-13T02:26:15.815Z,1016.3
2016-08-13T02:27:15.840Z,1016.28
2016-08-13T02:28:15.868Z,1016.27
2016-08-13T02:29:15.896Z,1016.19
2016-08-13T02:30:15.921Z,1016.29
2016-08-13T02:31:15.948Z,1016.23
2016-08-13T02:33:15.999Z,1016.31
2016-08-13T02:34:16.027Z,1016.3
2016-08-13T02:35:16.055Z,1016.32
2016-08-13T02:36:16.079Z,1016.38
2016-08-13T02:37:16.108Z,1016.34
2016-08-13T02:38:16.130Z,1016.39
2016-08-13T02:39:16.157Z,1016.36
2016-08-13T02:40:16.183Z,1016.38
2016-08-13T02:41:16.207Z,1016.35
2016-08-13T02:42:16.240Z,1016.37
2016-08-13T02:43:16.263Z,1016.37
2016-08-13T02:44:16.290Z,1016.36
2016-08-13T02:45:16.327Z,1016.34
2016-08-13T02:46:16.342Z,1016.35
2016-08-13T02:47:16.370Z,1016.36
2016-08-13T02:48:16.393Z,1016.33
2016-08-13T02:49:16.421Z,1016.28
2016-08-13T02:50:16.445Z,1016.27
2016-08-13T02:51:16.471Z,1016.24
2016-08-13T02:52:16.496Z,1016.27
2016-08-13T02:53:16.524Z,1016.26
2016-08-13T02:54:16.549Z,1016.27
2016-08-13T02:55:16.579Z,1016.26
2016-08-13T02:56:16.601Z,1016.25
2016-08-13T02:57:16.630Z,1016.22
2016-08-13T02:58:16.657Z,1016.26
2016-08-13T02:59:16.680Z,1016.29
2016-08-13T03:00:16.706Z,1016.28
2016-08-13T03:01:16.735Z,1016.3
2016-08-13T03:02:16.761Z,1016.33
2016-08-13T03:03:16.786Z,1016.31
2016-08-13T03:05:16.839Z,1016.26
2016-08-13T03:06:16.867Z,1016.29
2016-08-13T03:07:16.890Z,1016.28
2016-08-13T03:08:16.916Z,1016.34
2016-08-13T03:09:16.946Z,1016.36
2016-08-13T03:10:16.969Z,1016.35
2016-08-13T03:11:16.996Z,1016.31
2016-08-13T03:12:17.022Z,1016.34
2016-08-13T03:13:17.051Z,1016.32
2016-08-13T03:14:17.074Z,1016.34
2016-08-13T03:15:17.099Z,1016.35
2016-08-13T03:16:17.136Z,1016.35
2016-08-13T03:17:17.156Z,1016.39
2016-08-13T03:18:17.177Z,1016.37
2016-08-13T03:19:17.209Z,1016.36
2016-08-13T03:21:17.259Z,1016.41
2016-08-13T03:22:17.282Z,1016.4
2016-08-13T03:23:17.312Z,1016.44
2016-08-13T03:24:17.338Z,1016.43
2016-08-13T03:25:17.361Z,1016.39
2016-08-13T03:26:17.389Z,1016.39
2016-08-13T03:27:17.416Z,1016.41
2016-08-13T03:28:17.443Z,1016.38
2016-08-13T03:29:17.465Z,1016.39
2016-08-13T03:30:17.492Z,1016.44
2016-08-13T03:31:17.522Z,1016.41
2016-08-13T03:32:17.544Z,1016.41
2016-08-13T03:33:17.571Z,1016.43
2016-08-13T03:34:17.596Z,1016.41
2016-08-13T03:35:17.675Z,1016.38
2016-08-13T03:37:17.680Z,1016.36
2016-08-13T03:38:17.710Z,1016.39
2016-08-13T03:39:17.728Z,1016.43
2016-08-13T03:40:17.756Z,1016.41
2016-08-13T03:41:17.783Z,1016.35
2016-08-13T03:42:17.808Z,1016.39
2016-08-13T03:43:17.836Z,1016.37
2016-08-13T03:44:17.860Z,1016.35
2016-08-13T03:45:17.886Z,1016.36
2016-08-13T03:46:17.911Z,1016.34
2016-08-13T03:47:17.936Z,1016.38
2016-08-13T03:48:17.965Z,1016.39
2016-08-13T03:49:17.991Z,1016.4
2016-08-13T03:50:18.066Z,1016.41
2016-08-13T03:51:18.042Z,1016.43
2016-08-13T03:53:18.093Z,1016.44
2016-08-13T03:54:18.120Z,1016.42
2016-08-13T03:55:18.147Z,1016.4
2016-08-13T03:56:18.172Z,1016.38
2016-08-13T03:57:18.198Z,1016.35
2016-08-13T03:58:18.223Z,1016.37
2016-08-13T03:59:18.249Z,1016.34
2016-08-13T04:00:18.277Z,1016.32
2016-08-13T04:01:18.302Z,1016.34
2016-08-13T04:02:18.329Z,1016.37
2016-08-13T04:03:18.357Z,1016.36
2016-08-13T04:04:18.381Z,1016.33
2016-08-13T04:05:18.409Z,1016.38
2016-08-13T04:06:18.439Z,1016.36
2016-08-13T04:08:18.488Z,1016.4
2016-08-13T04:09:18.510Z,1016.41
2016-08-13T04:10:18.537Z,1016.42
2016-08-13T04:11:18.566Z,1016.4
2016-08-13T04:12:18.593Z,1016.4
2016-08-13T04:13:18.618Z,1016.43
2016-08-13T04:14:18.642Z,1016.46
2016-08-13T04:15:18.670Z,1016.44
2016-08-13T04:16:18.706Z,1016.43
2016-08-13T04:17:18.721Z,1016.43
2016-08-13T04:18:18.746Z,1016.46
2016-08-13T04:19:18.773Z,1016.45
2016-08-13T04:20:18.797Z,1016.42
2016-08-13T04:21:18.826Z,1016.42
2016-08-13T04:22:18.850Z,1016.43
2016-08-13T04:23:18.877Z,1016.42
2016-08-13T04:24:18.903Z,1016.46
2016-08-13T04:25:18.930Z,1016.4
2016-08-13T04:26:18.966Z,1016.41
2016-08-13T04:27:18.980Z,1016.44
2016-08-13T04:28:19.007Z,1016.45
2016-08-13T04:29:19.036Z,1016.44
2016-08-13T04:30:19.113Z,1016.43
2016-08-13T04:31:19.085Z,1016.48
2016-08-13T04:32:19.111Z,1016.48
2016-08-13T04:33:19.138Z,1016.44
2016-08-13T04:34:19.166Z,1016.44
2016-08-13T04:35:19.191Z,1016.41
2016-08-13T04:36:19.217Z,1016.42
2016-08-13T04:37:19.243Z,1016.48
2016-08-13T04:38:19.318Z,1016.43
2016-08-13T04:40:19.323Z,1016.48
2016-08-13T04:41:19.347Z,1016.48
2016-08-13T04:42:19.374Z,1016.46
2016-08-13T04:43:19.399Z,1016.51
2016-08-13T04:44:19.428Z,1016.52
2016-08-13T04:45:19.455Z,1016.54
2016-08-13T04:46:19.477Z,1016.56
2016-08-13T04:47:19.506Z,1016.46
2016-08-13T04:48:19.533Z,1016.46
2016-08-13T04:49:19.558Z,1016.47
2016-08-13T04:50:19.585Z,1016.43
2016-08-13T04:51:19.614Z,1016.43
2016-08-13T04:52:19.639Z,1016.45
2016-08-13T04:53:19.714Z,1016.47
2016-08-13T04:54:19.688Z,1016.5
2016-08-13T04:56:19.743Z,1016.57
2016-08-13T04:57:19.766Z,1016.57
2016-08-13T04:58:19.795Z,1016.61
2016-08-13T04:59:19.822Z,1016.61
2016-08-13T05:00:19.847Z,1016.66
2016-08-13T05:01:19.875Z,1016.65
2016-08-13T05:02:19.902Z,1016.64
2016-08-13T05:03:19.929Z,1016.68
2016-08-13T05:04:19.953Z,1016.62
2016-08-13T05:05:19.981Z,1016.71
2016-08-13T05:06:20.009Z,1016.69
2016-08-13T05:07:20.036Z,1016.68
2016-08-13T05:08:20.066Z,1016.7
2016-08-13T05:09:20.095Z,1016.71
2016-08-13T05:10:20.122Z,1016.73
2016-08-13T05:12:20.177Z,1016.67
2016-08-13T05:13:20.207Z,1016.71
2016-08-13T05:14:20.236Z,1016.7
2016-08-13T05:15:20.264Z,1016.65
2016-08-13T05:16:20.296Z,1016.65
2016-08-13T05:17:20.325Z,1016.69
2016-08-13T05:18:20.355Z,1016.73
2016-08-13T05:19:20.384Z,1016.73
2016-08-13T05:20:20.414Z,1016.6
2016-08-13T05:21:20.443Z,1016.54
2016-08-13T05:22:20.475Z,1016.54
2016-08-13T05:23:20.505Z,1016.54
2016-08-13T05:24:20.533Z,1016.49
2016-08-13T05:25:20.563Z,1016.46
2016-08-13T05:26:20.595Z,1016.54
2016-08-13T05:28:20.653Z,1016.48
2016-08-13T05:29:20.685Z,1016.54
2016-08-13T05:30:20.711Z,1016.56
2016-08-13T05:31:20.741Z,1016.58
2016-08-13T05:32:20.772Z,1016.71
2016-08-13T05:33:20.800Z,1016.7
2016-08-13T05:34:20.827Z,1016.63
2016-08-13T05:35:20.860Z,1016.61
2016-08-13T05:36:20.888Z,1016.57
2016-08-13T05:37:20.915Z,1016.6
2016-08-13T05:38:20.947Z,1016.65
2016-08-13T05:39:20.976Z,1016.72
2016-08-13T05:40:21.006Z,1016.8
2016-08-13T05:41:21.037Z,1016.73
2016-08-13T05:43:21.094Z,1016.86
2016-08-13T05:44:21.124Z,1016.85
2016-08-13T05:45:21.156Z,1016.85
2016-08-13T05:46:21.187Z,1016.84
2016-08-13T05:47:21.217Z,1016.87
2016-08-13T05:48:21.248Z,1016.96
2016-08-13T05:49:21.278Z,1016.94
2016-08-13T05:50:21.311Z,1016.97
2016-08-13T05:51:21.342Z,1016.97
2016-08-13T05:52:21.376Z,1016.97
2016-08-13T05:53:21.406Z,1016.95
2016-08-13T05:54:21.439Z,1017.07
2016-08-13T05:55:21.472Z,1016.97
2016-08-13T05:56:21.504Z,1016.97
2016-08-13T05:57:21.537Z,1016.98
2016-08-13T05:58:21.571Z,1017
2016-08-13T05:59:21.604Z,1017.02
2016-08-13T06:00:21.640Z,1017.04
2016-08-13T06:01:21.674Z,1017.08
2016-08-13T06:02:21.705Z,1016.68
2016-08-13T06:03:21.741Z,1016.69
2016-08-13T06:04:21.774Z,1016.69
2016-08-13T06:05:21.808Z,1016.73
2016-08-13T06:06:21.841Z,1016.7
2016-08-13T06:07:21.878Z,1016.97
2016-08-13T06:08:21.909Z,1016.97
2016-08-13T06:09:21.943Z,1016.95
2016-08-13T06:10:21.976Z,1017
2016-08-13T06:11:22.011Z,1017.04
2016-08-13T06:12:22.045Z,1017.2
2016-08-13T06:13:22.079Z,1017.27
2016-08-13T06:15:22.149Z,1017.3
2016-08-13T06:16:22.183Z,1017.19
2016-08-13T06:17:22.218Z,1017.25
2016-08-13T06:18:22.250Z,1017.15
2016-08-13T06:19:22.285Z,1017.31
2016-08-13T06:20:22.320Z,1017.29
2016-08-13T06:21:22.354Z,1017.36
2016-08-13T06:22:22.391Z,1017.41
2016-08-13T06:23:22.427Z,1017.28
2016-08-13T06:24:22.458Z,1017.47
2016-08-13T06:25:22.494Z,1017.48
2016-08-13T06:26:22.531Z,1017.49
2016-08-13T06:27:22.567Z,1017.52
2016-08-13T06:28:22.599Z,1017.51
2016-08-13T06:29:22.636Z,1017.52
2016-08-13T06:31:22.706Z,1017.47
2016-08-13T06:32:22.745Z,1017.11
2016-08-13T06:33:22.776Z,1017.64
2016-08-13T06:34:22.813Z,1017.49
2016-08-13T06:35:22.846Z,1017.7
2016-08-13T06:36:22.882Z,1017.74
2016-08-13T06:37:22.920Z,1017.72
2016-08-13T06:38:22.955Z,1017.7
2016-08-13T06:39:22.990Z,1017.63
2016-08-13T06:40:23.027Z,1017.69
2016-08-13T06:41:23.062Z,1017.77
2016-08-13T06:42:23.098Z,1017.76
2016-08-13T06:43:23.134Z,1016.91
2016-08-13T06:44:23.170Z,1017.65
2016-08-13T06:45:23.204Z,1017.29
2016-08-13T06:47:23.277Z,1017.82
2016-08-13T06:48:23.311Z,1017.88
2016-08-13T06:49:23.347Z,1017.75
2016-08-13T06:50:23.382Z,1017.78
2016-08-13T06:51:23.418Z,1017.74
2016-08-13T06:52:23.461Z,1017.68
2016-08-13T06:53:23.492Z,1017.7
2016-08-13T06:54:23.527Z,1017.63
2016-08-13T06:55:23.563Z,1017.65
2016-08-13T06:56:23.602Z,1017.64
2016-08-13T06:57:23.638Z,1017.6
2016-08-13T06:58:23.671Z,1017.59
2016-08-13T06:59:23.713Z,1017.58
2016-08-13T07:00:23.745Z,1017.58
2016-08-13T07:01:23.780Z,1017.52
2016-08-13T07:03:23.853Z,1017.54
2016-08-13T07:04:23.891Z,1017.55
2016-08-13T07:05:23.927Z,1017.57
2016-08-13T07:06:23.962Z,1017.55
2016-08-13T07:07:24.000Z,1017.51
2016-08-13T07:08:24.036Z,1017.58
2016-08-13T07:09:24.074Z,1017.57
2016-08-13T07:10:24.113Z,1017.61
2016-08-13T07:11:24.146Z,1017.56
2016-08-13T07:12:24.181Z,1017.58
2016-08-13T07:13:24.219Z,1017.5
2016-08-13T07:14:24.258Z,1017.43
2016-08-13T07:15:24.292Z,1017.44
2016-08-13T07:16:24.332Z,1017.45
2016-08-13T07:18:24.405Z,1017.42
2016-08-13T07:19:24.442Z,1017.42
2016-08-13T07:20:24.479Z,1017.39
2016-08-13T07:21:24.515Z,1017.38
2016-08-13T07:22:24.551Z,1017.38
2016-08-13T07:23:24.590Z,1017.34
2016-08-13T07:24:24.625Z,1017.29
2016-08-13T07:25:24.661Z,1017.33
2016-08-13T07:26:24.699Z,1017.3
2016-08-13T07:27:24.734Z,1017.39
2016-08-13T07:28:24.775Z,1017.34
2016-08-13T07:29:24.810Z,1017.34
2016-08-13T07:30:24.846Z,1017.33
2016-08-13T07:31:24.881Z,1017.28
2016-08-13T07:32:24.918Z,1017.21
2016-08-13T07:33:24.957Z,1017.26
2016-08-13T07:34:24.991Z,1017.26
2016-08-13T07:35:25.029Z,1017.28
2016-08-13T07:36:25.069Z,1017.25
2016-08-13T07:37:25.102Z,1017.27
2016-08-13T07:38:25.142Z,1017.26
2016-08-13T07:39:25.178Z,1017.26
2016-08-13T07:40:25.222Z,1017.2
2016-08-13T07:41:25.254Z,1017.22
2016-08-13T07:42:25.288Z,1017.24
2016-08-13T07:43:25.325Z,1017.2
2016-08-13T07:44:25.360Z,1017.16
2016-08-13T07:45:25.398Z,1017.1
2016-08-13T07:46:25.436Z,1017.09
2016-08-13T07:47:25.473Z,1017.03
2016-08-13T07:48:25.508Z,1016.98
2016-08-13T07:50:25.580Z,1017.06
2016-08-13T07:51:25.620Z,1017.03
2016-08-13T07:52:25.657Z,1016.94
2016-08-13T07:53:25.691Z,1016.98
2016-08-13T07:54:25.731Z,1016.95
2016-08-13T07:55:25.769Z,1016.89
2016-08-13T07:56:25.803Z,1016.93
2016-08-13T07:57:25.839Z,1016.88
2016-08-13T07:58:25.878Z,1016.95
2016-08-13T07:59:25.913Z,1016.88
2016-08-13T08:00:25.952Z,1016.89
2016-08-13T08:01:25.989Z,1016.86
2016-08-13T08:02:26.026Z,1016.91
2016-08-13T08:03:26.060Z,1016.9
2016-08-13T08:04:26.096Z,1016.87
2016-08-13T08:06:26.170Z,1016.74
2016-08-13T08:07:26.208Z,1016.38
2016-08-13T08:08:26.243Z,1016.62
2016-08-13T08:09:26.283Z,1016.7
2016-08-13T08:10:26.316Z,1016.68
2016-08-13T08:11:26.354Z,1016.67
2016-08-13T08:12:26.391Z,1016.69
2016-08-13T08:13:26.428Z,1016.55
2016-08-13T08:14:26.464Z,1016.67
2016-08-13T08:15:26.500Z,1016.69
2016-08-13T08:16:26.536Z,1016.66
2016-08-13T08:17:26.576Z,1016.2
2016-08-13T08:18:26.610Z,1016.67
2016-08-13T08:19:26.645Z,1016.64
2016-08-13T08:20:26.684Z,1016.27
2016-08-13T08:22:26.755Z,1016.24
2016-08-13T08:23:26.790Z,1016.58
2016-08-13T08:24:26.834Z,1016.27
2016-08-13T08:25:26.863Z,1016.52
2016-08-13T08:26:26.903Z,1016.57
2016-08-13T08:27:26.939Z,1016.14
2016-08-13T08:28:26.970Z,1016.8
2016-08-13T08:29:27.003Z,1016.63
2016-08-13T08:30:27.038Z,1016.64
2016-08-13T08:31:27.073Z,1016.62
2016-08-13T08:32:27.111Z,1016.34
2016-08-13T08:33:27.144Z,1016.05
2016-08-13T08:34:27.179Z,1016.22
2016-08-13T08:35:27.217Z,1016.37
2016-08-13T08:36:27.249Z,1016.46
2016-08-13T08:38:27.322Z,1016.44
2016-08-13T08:39:27.357Z,1016
2016-08-13T08:40:27.392Z,1015.96
2016-08-13T08:41:27.425Z,1016.21
2016-08-13T08:42:27.461Z,1016.16
2016-08-13T08:43:27.495Z,1016.34
2016-08-13T08:44:27.532Z,1015.88
2016-08-13T08:45:27.565Z,1015.96
2016-08-13T08:46:27.603Z,1015.95
2016-08-13T08:47:27.637Z,1016.31
2016-08-13T08:48:27.671Z,1016.23
2016-08-13T08:49:27.708Z,1015.95
2016-08-13T08:50:27.742Z,1015.89
2016-08-13T08:51:27.778Z,1016.01
2016-08-13T08:53:27.846Z,1015.91
2016-08-13T08:54:27.894Z,1016.03
2016-08-13T08:55:27.916Z,1015.96
2016-08-13T08:56:27.950Z,1016.04
2016-08-13T08:57:27.985Z,1015.91
2016-08-13T08:58:28.020Z,1015.89
2016-08-13T08:59:28.055Z,1015.85
2016-08-13T09:00:28.089Z,1015.85
2016-08-13T09:01:28.123Z,1015.86
2016-08-13T09:02:28.157Z,1015.92
2016-08-13T09:03:28.191Z,1015.86
2016-08-13T09:04:28.227Z,1015.99
2016-08-13T09:05:28.259Z,1016.01
2016-08-13T09:06:28.295Z,1015.89
2016-08-13T09:07:28.330Z,1015.89
2016-08-13T09:08:28.365Z,1015.79
2016-08-13T09:09:28.399Z,1015.73
2016-08-13T09:10:28.431Z,1015.82
2016-08-13T09:11:28.468Z,1015.88
2016-08-13T09:12:28.500Z,1015.86
2016-08-13T09:13:28.537Z,1015.88
2016-08-13T09:14:28.568Z,1015.91
2016-08-13T09:15:28.603Z,1015.83
2016-08-13T09:16:28.636Z,1015.91
2016-08-13T09:17:28.670Z,1015.78
2016-08-13T09:18:28.705Z,1015.8
2016-08-13T09:19:28.741Z,1015.7
2016-08-13T09:20:28.775Z,1015.79
2016-08-13T09:21:28.809Z,1015.73
2016-08-13T09:22:28.845Z,1015.67
2016-08-13T09:23:28.876Z,1015.72
2016-08-13T09:25:28.944Z,1015.74
2016-08-13T09:26:28.986Z,1015.71
2016-08-13T09:27:29.014Z,1015.85
2016-08-13T09:28:29.047Z,1015.7
2016-08-13T09:29:29.085Z,1015.7
2016-08-13T09:30:29.117Z,1015.62
2016-08-13T09:31:29.153Z,1015.61
2016-08-13T09:32:29.186Z,1015.55
2016-08-13T09:33:29.221Z,1015.56
2016-08-13T09:34:29.253Z,1015.55
2016-08-13T09:35:29.287Z,1015.51
2016-08-13T09:36:29.324Z,1015.57
2016-08-13T09:37:29.359Z,1015.54
2016-08-13T09:38:29.393Z,1015.61
2016-08-13T09:39:29.424Z,1015.5
2016-08-13T09:41:29.501Z,1015.52
2016-08-13T09:42:29.527Z,1015.46
2016-08-13T09:43:29.561Z,1015.59
2016-08-13T09:44:29.596Z,1015.49
2016-08-13T09:45:29.631Z,1015.44
2016-08-13T09:46:29.663Z,1015.42
2016-08-13T09:47:29.700Z,1015.37
2016-08-13T09:48:29.732Z,1015.31
2016-08-13T09:49:29.767Z,1015.32
2016-08-13T09:50:29.804Z,1015.37
2016-08-13T09:51:29.834Z,1015.41
2016-08-13T09:52:29.868Z,1015.35
2016-08-13T09:53:29.901Z,1015.33
2016-08-13T09:54:29.937Z,1015.25
2016-08-13T09:55:29.969Z,1015.3
2016-08-13T09:57:30.039Z,1015.23
2016-08-13T09:58:30.071Z,1015.2
2016-08-13T09:59:30.109Z,1015.21
2016-08-13T10:00:30.139Z,1015.2
2016-08-13T10:01:30.172Z,1015.19
2016-08-13T10:02:30.208Z,1015.18
2016-08-13T10:03:30.240Z,1015.2
2016-08-13T10:04:30.273Z,1015.13
2016-08-13T10:05:30.306Z,1015.11
2016-08-13T10:06:30.341Z,1015.12
2016-08-13T10:07:30.376Z,1015.01
2016-08-13T10:08:30.410Z,1015.06
2016-08-13T10:09:30.450Z,1015.11
2016-08-13T10:10:30.477Z,1015.06
2016-08-13T10:11:30.509Z,1015.14
2016-08-13T10:13:30.580Z,1015.07
2016-08-13T10:14:30.612Z,1015.09
2016-08-13T10:15:30.645Z,1015.04
2016-08-13T10:16:30.682Z,1015.07
2016-08-13T10:17:30.716Z,1015.07
2016-08-13T10:18:30.749Z,1015.13
2016-08-13T10:19:30.783Z,1015.07
2016-08-13T10:20:30.815Z,1015.05
2016-08-13T10:21:30.852Z,1015.09
2016-08-13T10:22:30.883Z,1015.05
2016-08-13T10:23:30.916Z,1015.01
2016-08-13T10:24:30.954Z,1015.07
2016-08-13T10:25:30.989Z,1015.04
2016-08-13T10:26:31.023Z,1015.06
2016-08-13T10:28:31.090Z,1014.99
2016-08-13T10:29:31.121Z,1014.97
2016-08-13T10:30:31.158Z,1014.99
2016-08-13T10:31:31.188Z,1015.1
2016-08-13T10:32:31.225Z,1014.93
2016-08-13T10:33:31.256Z,1014.92
2016-08-13T10:34:31.290Z,1014.9
2016-08-13T10:35:31.327Z,1014.91
2016-08-13T10:36:31.360Z,1014.88
2016-08-13T10:37:31.394Z,1014.83
2016-08-13T10:38:31.428Z,1014.87
2016-08-13T10:39:31.460Z,1014.87
2016-08-13T10:40:31.495Z,1014.8
2016-08-13T10:41:31.526Z,1014.78
2016-08-13T10:42:31.564Z,1014.8
2016-08-13T10:43:31.594Z,1014.77
2016-08-13T10:44:31.627Z,1014.67
2016-08-13T10:45:31.664Z,1014.77
2016-08-13T10:46:31.697Z,1014.73
2016-08-13T10:47:31.731Z,1014.73
2016-08-13T10:48:31.764Z,1014.63
2016-08-13T10:49:31.796Z,1014.63
2016-08-13T10:50:31.829Z,1014.69
2016-08-13T10:51:31.864Z,1014.64
2016-08-13T10:52:31.898Z,1014.65
2016-08-13T10:53:31.931Z,1014.62
2016-08-13T10:54:31.966Z,1014.64
2016-08-13T10:55:32.001Z,1014.65
2016-08-13T10:56:32.030Z,1014.62
2016-08-13T10:57:32.064Z,1014.59
2016-08-13T10:58:32.096Z,1014.68
2016-08-13T11:00:32.165Z,1014.66
2016-08-13T11:01:32.202Z,1014.63
2016-08-13T11:02:32.229Z,1014.62
2016-08-13T11:03:32.261Z,1014.59
2016-08-13T11:04:32.298Z,1014.52
2016-08-13T11:05:32.329Z,1014.64
2016-08-13T11:06:32.411Z,1014.56
2016-08-13T11:07:32.394Z,1014.65
2016-08-13T11:08:32.430Z,1014.57
2016-08-13T11:09:32.460Z,1014.55
2016-08-13T11:10:32.493Z,1014.43
2016-08-13T11:11:32.526Z,1014.5
2016-08-13T11:12:32.561Z,1014.47
2016-08-13T11:13:32.591Z,1014.47
2016-08-13T11:14:32.628Z,1014.4
2016-08-13T11:16:32.692Z,1014.36
2016-08-13T11:17:32.723Z,1014.43
2016-08-13T11:18:32.758Z,1014.37
2016-08-13T11:19:32.791Z,1014.38
2016-08-13T11:20:32.822Z,1014.38
2016-08-13T11:21:32.854Z,1014.38
2016-08-13T11:22:32.887Z,1014.38
2016-08-13T11:23:32.920Z,1014.38
2016-08-13T11:24:32.962Z,1014.35
2016-08-13T11:25:32.988Z,1014.32
2016-08-13T11:26:33.020Z,1014.33
2016-08-13T11:27:33.052Z,1014.3
2016-08-13T11:28:33.082Z,1014.29
2016-08-13T11:29:33.119Z,1014.26
2016-08-13T11:30:33.148Z,1014.28
2016-08-13T11:32:33.215Z,1014.25
2016-08-13T11:33:33.247Z,1014.3
2016-08-13T11:34:33.280Z,1014.29
2016-08-13T11:35:33.312Z,1014.31
2016-08-13T11:36:33.343Z,1014.28
2016-08-13T11:37:33.378Z,1014.26
2016-08-13T11:38:33.414Z,1014.23
2016-08-13T11:39:33.439Z,1014.21
2016-08-13T11:40:33.472Z,1014.26
2016-08-13T11:41:33.506Z,1014.26
2016-08-13T11:42:33.543Z,1014.21
2016-08-13T11:43:33.569Z,1014.22
2016-08-13T11:44:33.603Z,1014.24
2016-08-13T11:45:33.635Z,1014.23
2016-08-13T11:46:33.669Z,1014.27
2016-08-13T11:48:33.732Z,1014.19
2016-08-13T11:49:33.766Z,1014.16
2016-08-13T11:50:33.798Z,1014.23
2016-08-13T11:51:33.832Z,1014.16
2016-08-13T11:52:33.861Z,1014.17
2016-08-13T11:53:33.894Z,1014.26
2016-08-13T11:54:33.926Z,1014.21
2016-08-13T11:55:33.960Z,1014.23
2016-08-13T11:56:33.993Z,1014.25
2016-08-13T11:57:34.023Z,1014.18
2016-08-13T11:58:34.055Z,1014.21
2016-08-13T11:59:34.088Z,1014.19
2016-08-13T12:00:34.121Z,1014.18
2016-08-13T12:01:34.153Z,1014.18
2016-08-13T12:03:34.219Z,1014.21
2016-08-13T12:04:34.250Z,1014.14
2016-08-13T12:05:34.283Z,1014.09
2016-08-13T12:06:34.315Z,1014.11
2016-08-13T12:07:34.396Z,1014.1
2016-08-13T12:08:34.380Z,1014.09
2016-08-13T12:09:34.412Z,1014.09
2016-08-13T12:10:34.444Z,1014.05
2016-08-13T12:11:34.476Z,1014.15
2016-08-13T12:12:34.509Z,1014.1
2016-08-13T12:13:34.542Z,1014.14
2016-08-13T12:14:34.575Z,1014.1
2016-08-13T12:15:34.606Z,1014.09
2016-08-13T12:16:34.636Z,1014.02
2016-08-13T12:17:34.671Z,1014.07
2016-08-13T12:18:34.701Z,1014
2016-08-13T12:19:34.736Z,1014
2016-08-13T12:20:34.773Z,1014.01
2016-08-13T12:21:34.802Z,1014.07
2016-08-13T12:22:34.832Z,1014.04
2016-08-13T12:23:34.864Z,1014.09
2016-08-13T12:24:34.898Z,1014.07
2016-08-13T12:25:34.929Z,1014.13
2016-08-13T12:26:34.961Z,1014.14
2016-08-13T12:27:34.995Z,1014.15
2016-08-13T12:28:35.026Z,1014.2
2016-08-13T12:29:35.060Z,1014.15
2016-08-13T12:30:35.093Z,1014.15
2016-08-13T12:31:35.121Z,1014.2
2016-08-13T12:32:35.157Z,1014.16
2016-08-13T12:33:35.186Z,1014.18
2016-08-13T12:35:35.252Z,1014.12
2016-08-13T12:36:35.285Z,1014.11
2016-08-13T12:37:35.316Z,1014.11
2016-08-13T12:38:35.346Z,1014.09
2016-08-13T12:39:35.379Z,1014.09
2016-08-13T12:40:35.413Z,1014.11
2016-08-13T12:41:35.446Z,1014.07
2016-08-13T12:42:35.478Z,1014.08
2016-08-13T12:43:35.511Z,1014.06
2016-08-13T12:44:35.543Z,1014.03
2016-08-13T12:45:35.574Z,1014.01
2016-08-13T12:46:35.604Z,1014.08
2016-08-13T12:47:35.640Z,1013.98
2016-08-13T12:48:35.671Z,1013.98